createdAt,value
2023-02-16T00:01:26.344Z,101699.38
2023-02-16T00:03:56.324Z,101696.50
2023-02-16T00:06:26.318Z,101697.69
2023-02-16T00:08:56.332Z,101689.88
2023-02-16T00:11:46.168Z,101678.34
2023-02-16T00:14:15.252Z,101692.91
2023-02-16T00:16:43.631Z,101694.94
2023-02-16T00:19:21.339Z,101667.63
2023-02-16T00:21:52.561Z,101691.69
2023-02-16T00:24:22.609Z,101693.38
2023-02-16T00:26:50.912Z,101681.81
2023-02-16T00:29:23.578Z,101687.59
2023-02-16T00:31:52.027Z,101681.50
2023-02-16T00:34:31.881Z,101678.13
2023-02-16T00:37:03.209Z,101681.03
2023-02-16T00:39:31.243Z,101683.66
2023-02-16T00:42:03.524Z,101691.75
2023-02-16T00:44:34.907Z,101675.25
2023-02-16T00:47:10.029Z,101679.66
2023-02-16T00:49:37.808Z,101681.72
2023-02-16T00:52:24.091Z,101687.19
2023-02-16T00:54:51.845Z,101671.19
2023-02-16T00:57:20.949Z,101674.81
2023-02-16T00:59:52.536Z,101678.00
2023-02-16T01:02:20.273Z,101668.66
2023-02-16T01:04:50.282Z,101678.38
2023-02-16T01:07:34.950Z,101652.88
2023-02-16T01:10:20.006Z,101663.03
2023-02-16T01:12:47.819Z,101666.41
2023-02-16T01:15:20.177Z,101668.81
2023-02-16T01:17:47.912Z,101649.69
2023-02-16T01:20:16.877Z,101651.22
2023-02-16T01:22:45.978Z,101650.31
2023-02-16T01:25:15.487Z,101656.97
2023-02-16T01:27:43.973Z,101656.03
2023-02-16T01:30:17.011Z,101658.25
2023-02-16T01:32:51.282Z,101658.25
2023-02-16T01:35:19.782Z,101656.75
2023-02-16T01:37:49.415Z,101659.25
2023-02-16T01:40:30.009Z,101634.28
2023-02-16T01:43:03.163Z,101644.47
2023-02-16T01:45:34.844Z,101651.25
2023-02-16T01:48:06.587Z,101659.44
2023-02-16T01:50:44.315Z,101651.63
2023-02-16T01:53:22.220Z,101646.41
2023-02-16T01:55:57.046Z,101652.50
2023-02-16T01:58:35.178Z,101657.88
2023-02-16T02:01:41.451Z,101648.47
2023-02-16T02:04:38.836Z,101646.47
2023-02-16T02:07:06.608Z,101643.13
2023-02-16T02:09:43.614Z,101642.06
2023-02-16T02:12:19.857Z,101642.28
2023-02-16T02:14:49.200Z,101645.13
2023-02-16T02:17:21.294Z,101642.63
2023-02-16T02:19:58.059Z,101634.75
2023-02-16T02:23:16.314Z,101637.66
2023-02-16T02:26:15.058Z,101637.81
2023-02-16T02:28:55.236Z,101629.09
2023-02-16T02:31:33.779Z,101632.56
2023-02-16T02:34:12.932Z,101631.19
2023-02-16T02:36:51.247Z,101629.94
2023-02-16T02:39:33.249Z,101608.50
2023-02-16T02:42:08.787Z,101611.91
2023-02-16T02:44:50.053Z,101608.66
2023-02-16T02:47:18.314Z,101619.84
2023-02-16T02:49:53.925Z,101613.13
2023-02-16T02:52:24.986Z,101622.03
2023-02-16T02:55:10.351Z,101633.16
2023-02-16T02:58:00.491Z,101627.28
2023-02-16T03:00:44.039Z,101620.47
2023-02-16T03:03:17.869Z,101627.41
2023-02-16T03:05:49.484Z,101607.38
2023-02-16T03:08:21.263Z,101613.56
2023-02-16T03:11:10.329Z,101605.28
2023-02-16T03:13:40.835Z,101604.28
2023-02-16T03:16:13.557Z,101600.03
2023-02-16T03:19:01.473Z,101619.81
2023-02-16T03:21:54.980Z,101605.84
2023-02-16T03:24:45.279Z,101614.56
2023-02-16T03:27:32.841Z,101597.22
2023-02-16T03:30:02.435Z,101573.31
2023-02-16T03:32:31.863Z,101593.47
2023-02-16T03:34:59.644Z,101589.13
2023-02-16T03:37:27.597Z,101570.88
2023-02-16T03:40:13.048Z,101567.31
2023-02-16T03:42:40.820Z,101574.25
2023-02-16T03:45:10.104Z,101571.84
2023-02-16T03:47:39.286Z,101565.63
2023-02-16T03:50:08.480Z,101579.50
2023-02-16T03:52:36.200Z,101581.03
2023-02-16T03:55:04.008Z,101575.19
2023-02-16T03:57:31.788Z,101580.19
2023-02-16T03:59:59.887Z,101591.50
2023-02-16T04:02:29.196Z,101592.50
2023-02-16T04:04:58.339Z,101592.50
2023-02-16T04:07:26.122Z,101590.00
2023-02-16T04:09:53.793Z,101588.44
2023-02-16T04:12:38.574Z,101589.34
2023-02-16T04:15:08.994Z,101584.13
2023-02-16T04:17:37.001Z,101577.94
2023-02-16T04:20:08.220Z,101575.34
2023-02-16T04:22:36.046Z,101583.03
2023-02-16T04:25:03.802Z,101579.16
2023-02-16T04:27:31.639Z,101573.69
2023-02-16T04:29:59.442Z,101585.81
2023-02-16T04:32:27.168Z,101570.06
2023-02-16T04:34:54.930Z,101583.78
2023-02-16T04:37:24.051Z,101588.72
2023-02-16T04:39:52.030Z,101555.47
2023-02-16T04:42:19.765Z,101575.16
2023-02-16T04:44:47.524Z,101577.38
2023-02-16T04:47:15.348Z,101583.41
2023-02-16T04:49:43.134Z,101587.00
2023-02-16T04:52:12.257Z,101579.16
2023-02-16T04:54:41.773Z,101591.19
2023-02-16T04:57:10.789Z,101579.94
2023-02-16T04:59:38.762Z,101589.41
2023-02-16T05:02:06.467Z,101587.88
2023-02-16T05:04:34.392Z,101586.72
2023-02-16T05:07:02.173Z,101580.84
2023-02-16T05:09:29.884Z,101578.09
2023-02-16T05:12:16.288Z,101578.22
2023-02-16T05:14:45.128Z,101575.75
2023-02-16T05:17:15.927Z,101576.69
2023-02-16T05:19:45.592Z,101584.41
2023-02-16T05:22:15.028Z,101555.47
2023-02-16T05:24:43.651Z,101580.06
2023-02-16T05:27:15.782Z,101590.72
2023-02-16T05:29:43.611Z,101593.63
2023-02-16T05:32:11.534Z,101593.69
2023-02-16T05:34:39.655Z,101587.59
2023-02-16T05:37:07.672Z,101592.06
2023-02-16T05:39:35.373Z,101593.91
2023-02-16T05:42:03.164Z,101594.16
2023-02-16T05:44:32.245Z,101593.13
2023-02-16T05:47:00.011Z,101595.69
2023-02-16T05:49:27.750Z,101586.34
2023-02-16T05:51:55.661Z,101583.75
2023-02-16T05:54:23.489Z,101590.69
2023-02-16T05:56:52.769Z,101587.22
2023-02-16T05:59:20.622Z,101593.22
2023-02-16T06:01:52.165Z,101585.28
2023-02-16T06:04:21.546Z,101586.22
2023-02-16T06:06:51.513Z,101562.66
2023-02-16T06:09:19.595Z,101585.28
2023-02-16T06:11:47.448Z,101587.88
2023-02-16T06:14:17.777Z,101591.47
2023-02-16T06:16:47.788Z,101586.13
2023-02-16T06:19:18.064Z,101586.50
2023-02-16T06:21:46.134Z,101589.03
2023-02-16T06:24:15.503Z,101590.69
2023-02-16T06:26:43.287Z,101587.75
2023-02-16T06:29:11.508Z,101588.53
2023-02-16T06:31:39.412Z,101592.72
2023-02-16T06:34:07.517Z,101574.78
2023-02-16T06:36:36.725Z,101596.09
2023-02-16T06:39:05.109Z,101593.41
2023-02-16T06:41:35.673Z,101592.41
2023-02-16T06:44:06.321Z,101589.69
2023-02-16T06:46:34.293Z,101599.19
2023-02-16T06:49:02.503Z,101597.41
2023-02-16T06:51:30.351Z,101591.13
2023-02-16T06:53:59.853Z,101553.09
2023-02-16T06:56:27.921Z,101585.09
2023-02-16T06:58:55.638Z,101600.47
2023-02-16T07:01:25.770Z,101600.28
2023-02-16T07:03:55.348Z,101581.50
2023-02-16T07:06:24.410Z,101599.63
2023-02-16T07:08:52.657Z,101599.22
2023-02-16T07:11:22.617Z,101607.88
2023-02-16T07:13:50.886Z,101611.19
2023-02-16T07:16:18.730Z,101624.16
2023-02-16T07:18:47.329Z,101622.06
2023-02-16T07:21:15.540Z,101608.03
2023-02-16T07:23:43.946Z,101602.59
2023-02-16T07:26:11.662Z,101599.19
2023-02-16T07:28:40.847Z,101611.81
2023-02-16T07:31:10.004Z,101620.84
2023-02-16T07:33:37.906Z,101623.56
2023-02-16T07:36:07.017Z,101621.78
2023-02-16T07:38:34.922Z,101606.06
2023-02-16T07:41:03.572Z,101611.22
2023-02-16T07:43:32.022Z,101614.50
2023-02-16T07:46:01.162Z,101612.22
2023-02-16T07:48:29.231Z,101611.16
2023-02-16T07:50:56.945Z,101614.50
2023-02-16T07:53:24.769Z,101610.66
2023-02-16T07:55:52.567Z,101608.97
2023-02-16T07:58:28.104Z,101619.75
2023-02-16T08:00:56.999Z,101620.38
2023-02-16T08:03:26.351Z,101618.47
2023-02-16T08:05:58.204Z,101612.66
2023-02-16T08:08:26.075Z,101613.16
2023-02-16T08:10:54.016Z,101611.38
2023-02-16T08:13:21.707Z,101609.44
2023-02-16T08:15:49.493Z,101599.41
2023-02-16T08:18:17.232Z,101617.22
2023-02-16T08:21:02.818Z,101603.97
2023-02-16T08:23:31.779Z,101608.22
2023-02-16T08:25:59.951Z,101602.47
2023-02-16T08:28:28.972Z,101606.81
2023-02-16T08:30:57.058Z,101609.13
2023-02-16T08:33:25.187Z,101608.28
2023-02-16T08:35:54.328Z,101607.72
2023-02-16T08:38:22.752Z,101605.81
2023-02-16T08:40:51.168Z,101612.13
2023-02-16T08:43:19.226Z,101606.56
2023-02-16T08:45:48.396Z,101597.09
2023-02-16T08:48:17.834Z,101612.19
2023-02-16T08:50:53.517Z,101608.66
2023-02-16T08:53:24.563Z,101612.81
2023-02-16T08:55:53.229Z,101615.28
2023-02-16T08:58:21.155Z,101610.88
2023-02-16T09:00:49.708Z,101599.03
2023-02-16T09:03:19.232Z,101609.22
2023-02-16T09:05:47.533Z,101595.91
2023-02-16T09:08:15.772Z,101627.00
2023-02-16T09:10:44.975Z,101634.94
2023-02-16T09:13:14.890Z,101625.44
2023-02-16T09:15:43.179Z,101626.84
2023-02-16T09:18:12.486Z,101623.59
2023-02-16T09:20:41.417Z,101637.19
2023-02-16T09:23:12.309Z,101626.69
2023-02-16T09:25:41.837Z,101628.81
2023-02-16T09:28:11.939Z,101627.22
2023-02-16T09:30:40.324Z,101625.56
2023-02-16T09:33:08.226Z,101636.44
2023-02-16T09:35:36.011Z,101624.50
2023-02-16T09:38:03.779Z,101624.94
2023-02-16T09:40:31.634Z,101620.34
2023-02-16T09:43:08.896Z,101616.94
2023-02-16T09:45:44.773Z,101603.63
2023-02-16T09:48:23.360Z,101608.34
2023-02-16T09:50:55.223Z,101617.31
2023-02-16T09:53:31.488Z,101621.63
2023-02-16T09:56:09.354Z,101626.81
2023-02-16T09:58:43.001Z,101633.31
2023-02-16T10:01:23.790Z,101640.66
2023-02-16T10:04:00.650Z,101642.88
2023-02-16T10:06:51.657Z,101644.72
2023-02-16T10:09:22.148Z,101648.81
2023-02-16T10:11:54.539Z,101647.88
2023-02-16T10:14:33.561Z,101646.09
2023-02-16T10:17:12.304Z,101646.72
2023-02-16T10:19:47.697Z,101630.72
2023-02-16T10:22:29.361Z,101656.75
2023-02-16T10:25:01.681Z,101645.53
2023-02-16T10:27:35.980Z,101646.31
2023-02-16T10:30:03.854Z,101645.63
2023-02-16T10:32:44.218Z,101650.47
2023-02-16T10:35:17.330Z,101646.88
2023-02-16T10:38:06.737Z,101640.56
2023-02-16T10:40:51.863Z,101650.25
2023-02-16T10:43:24.934Z,101618.94
2023-02-16T10:45:54.513Z,101640.94
2023-02-16T10:48:24.832Z,101636.53
2023-02-16T10:50:58.910Z,101649.59
2023-02-16T10:53:37.524Z,101646.97
2023-02-16T10:56:33.634Z,101647.72
2023-02-16T10:59:05.785Z,101641.81
2023-02-16T11:01:38.490Z,101630.44
2023-02-16T11:04:07.841Z,101635.50
2023-02-16T11:06:36.714Z,101626.88
2023-02-16T11:09:06.701Z,101621.59
2023-02-16T11:11:38.442Z,101624.78
2023-02-16T11:14:09.413Z,101616.72
2023-02-16T11:16:37.277Z,101624.25
2023-02-16T11:19:19.508Z,101618.44
2023-02-16T11:21:50.197Z,101602.28
2023-02-16T11:24:26.901Z,101606.13
2023-02-16T11:27:02.568Z,101601.16
2023-02-16T11:29:30.581Z,101598.16
2023-02-16T11:31:59.661Z,101595.81
2023-02-16T11:34:33.335Z,101597.88
2023-02-16T11:37:08.296Z,101588.44
2023-02-16T11:39:40.096Z,101587.41
2023-02-16T11:42:11.013Z,101577.22
2023-02-16T11:44:41.932Z,101568.91
2023-02-16T11:47:22.207Z,101573.06
2023-02-16T11:50:05.820Z,101569.28
2023-02-16T11:52:33.663Z,101570.13
2023-02-16T11:55:03.011Z,101560.72
2023-02-16T11:57:32.573Z,101562.41
2023-02-16T12:00:02.008Z,101550.28
2023-02-16T12:03:08.002Z,101546.41
2023-02-16T12:05:47.598Z,101536.25
2023-02-16T12:08:29.012Z,101546.09
2023-02-16T12:11:10.540Z,101554.66
2023-02-16T12:13:47.529Z,101543.25
2023-02-16T12:16:25.818Z,101545.91
2023-02-16T12:19:08.861Z,101540.81
2023-02-16T12:21:45.251Z,101545.91
2023-02-16T12:24:28.232Z,101542.41
2023-02-16T12:26:59.266Z,101534.09
2023-02-16T12:29:51.426Z,101533.66
2023-02-16T12:32:37.310Z,101540.53
2023-02-16T12:35:17.078Z,101533.84
2023-02-16T12:37:55.041Z,101544.22
2023-02-16T12:40:34.726Z,101543.34
2023-02-16T12:43:16.532Z,101540.81
2023-02-16T12:45:46.192Z,101534.78
2023-02-16T12:48:28.844Z,101518.47
2023-02-16T12:51:03.043Z,101522.78
2023-02-16T12:53:43.149Z,101535.78
2023-02-16T12:56:18.085Z,101525.31
2023-02-16T12:58:53.406Z,101510.66
2023-02-16T13:01:26.950Z,101507.50
2023-02-16T13:04:00.285Z,101509.00
2023-02-16T13:06:37.460Z,101501.72
2023-02-16T13:09:23.592Z,101435.50
2023-02-16T13:11:56.571Z,101502.94
2023-02-16T13:14:29.082Z,101485.00
2023-02-16T13:17:00.548Z,101494.75
2023-02-16T13:19:30.132Z,101496.66
2023-02-16T13:22:31.942Z,101476.94
2023-02-16T13:25:22.763Z,101478.72
2023-02-16T13:28:07.130Z,101483.16
2023-02-16T13:30:49.774Z,101473.16
2023-02-16T13:33:45.124Z,101470.41
2023-02-16T13:36:39.855Z,101469.47
2023-02-16T13:39:42.050Z,101463.66
2023-02-16T13:42:40.353Z,101477.59
2023-02-16T13:45:17.165Z,101469.03
2023-02-16T13:47:45.580Z,101464.09
2023-02-16T13:50:29.932Z,101460.81
2023-02-16T13:52:59.881Z,101451.88
2023-02-16T13:55:31.247Z,101448.13
2023-02-16T13:58:26.989Z,101442.03
2023-02-16T14:00:57.136Z,101426.47
2023-02-16T14:03:39.854Z,101429.88
2023-02-16T14:06:37.040Z,101437.06
2023-02-16T14:09:34.479Z,101428.19
2023-02-16T14:12:04.661Z,101430.53
2023-02-16T14:14:41.321Z,101423.69
2023-02-16T14:17:25.028Z,101432.03
2023-02-16T14:19:57.621Z,101421.22
2023-02-16T14:22:33.571Z,101422.19
2023-02-16T14:25:04.391Z,101414.00
2023-02-16T14:27:47.856Z,101418.28
2023-02-16T14:30:27.363Z,101416.00
2023-02-16T14:33:00.385Z,101418.97
2023-02-16T14:35:33.867Z,101415.59
2023-02-16T14:38:03.507Z,101409.81
2023-02-16T14:40:48.359Z,101412.44
2023-02-16T14:43:50.415Z,101335.56
2023-02-16T14:46:41.266Z,101409.59
2023-02-16T14:49:25.840Z,101410.19
2023-02-16T14:52:29.637Z,101391.97
2023-02-16T14:55:33.583Z,101391.28
2023-02-16T14:58:06.969Z,101398.50
2023-02-16T15:00:45.817Z,101396.34
2023-02-16T15:03:22.314Z,101393.50
2023-02-16T15:05:58.208Z,101390.22
2023-02-16T15:08:34.941Z,101393.72
2023-02-16T15:11:13.635Z,101392.75
2023-02-16T15:13:42.874Z,101392.75
2023-02-16T15:16:15.453Z,101375.06
2023-02-16T15:18:47.744Z,101382.88
2023-02-16T15:21:20.770Z,101387.56
2023-02-16T15:23:51.777Z,101391.59
2023-02-16T15:26:22.294Z,101379.34
2023-02-16T15:28:55.410Z,101370.31
2023-02-16T15:31:33.375Z,101364.81
2023-02-16T15:34:05.704Z,101366.50
2023-02-16T15:36:35.741Z,101351.63
2023-02-16T15:39:06.090Z,101362.13
2023-02-16T15:41:35.900Z,101364.22
2023-02-16T15:44:05.821Z,101355.78
2023-02-16T15:46:36.967Z,101345.69
2023-02-16T15:49:13.848Z,101350.34
2023-02-16T15:51:43.269Z,101360.44
2023-02-16T15:54:23.166Z,101328.03
2023-02-16T15:56:54.048Z,101360.72
2023-02-16T15:59:35.050Z,101368.13
2023-02-16T16:02:11.820Z,101360.41
2023-02-16T16:04:43.654Z,101357.97
2023-02-16T16:07:16.144Z,101369.63
2023-02-16T16:09:46.278Z,101371.78
2023-02-16T16:12:17.189Z,101358.50
2023-02-16T16:14:51.463Z,101375.56
2023-02-16T16:17:29.798Z,101338.50
2023-02-16T16:20:00.266Z,101362.94
2023-02-16T16:22:36.052Z,101358.94
2023-02-16T16:25:24.823Z,101353.25
2023-02-16T16:27:52.785Z,101361.16
2023-02-16T16:30:28.757Z,101353.72
2023-02-16T16:33:01.365Z,101360.69
2023-02-16T16:35:39.738Z,101359.31
2023-02-16T16:38:21.093Z,101365.53
2023-02-16T16:40:52.847Z,101342.34
2023-02-16T16:43:30.195Z,101358.59
2023-02-16T16:46:13.673Z,101356.28
2023-02-16T16:48:44.885Z,101358.19
2023-02-16T16:51:16.866Z,101352.91
2023-02-16T16:53:53.426Z,101360.41
2023-02-16T16:56:21.948Z,101365.47
2023-02-16T16:58:51.310Z,101366.22
2023-02-16T17:01:20.664Z,101360.94
2023-02-16T17:03:48.749Z,101365.38
2023-02-16T17:06:19.071Z,101361.47
2023-02-16T17:08:47.524Z,101358.09
2023-02-16T17:11:25.067Z,101358.72
2023-02-16T17:13:54.808Z,101362.31
2023-02-16T17:16:27.382Z,101364.00
2023-02-16T17:18:55.215Z,101352.47
2023-02-16T17:21:24.452Z,101358.28
2023-02-16T17:23:53.614Z,101359.13
2023-02-16T17:26:22.177Z,101358.78
2023-02-16T17:28:50.745Z,101359.72
2023-02-16T17:31:18.611Z,101356.13
2023-02-16T17:33:46.399Z,101367.44
2023-02-16T17:36:16.691Z,101365.75
2023-02-16T17:38:48.343Z,101360.47
2023-02-16T17:41:21.321Z,101356.13
2023-02-16T17:43:49.084Z,101341.25
2023-02-16T17:46:18.020Z,101344.63
2023-02-16T17:48:46.510Z,101335.97
2023-02-16T17:51:20.109Z,101342.00
2023-02-16T17:53:49.278Z,101340.81
2023-02-16T17:56:19.870Z,101333.78
2023-02-16T17:58:47.974Z,101352.22
2023-02-16T18:01:17.430Z,101361.84
2023-02-16T18:03:52.479Z,101345.31
2023-02-16T18:06:28.160Z,101305.25
2023-02-16T18:09:01.520Z,101346.81
2023-02-16T18:11:29.586Z,101298.97
2023-02-16T18:13:57.908Z,101341.13
2023-02-16T18:16:29.173Z,101290.72
2023-02-16T18:18:58.408Z,101366.63
2023-02-16T18:21:31.663Z,101373.50
2023-02-16T18:24:00.842Z,101343.22
2023-02-16T18:26:33.294Z,101370.44
2023-02-16T18:29:01.431Z,101378.13
2023-02-16T18:31:31.199Z,101371.06
2023-02-16T18:33:59.202Z,101372.13
2023-02-16T18:36:26.928Z,101383.41
2023-02-16T18:38:56.902Z,101365.81
2023-02-16T18:41:26.014Z,101372.38
2023-02-16T18:43:53.890Z,101376.78
2023-02-16T18:46:24.743Z,101371.94
2023-02-16T18:48:52.516Z,101380.06
2023-02-16T18:51:23.470Z,101387.47
2023-02-16T18:53:51.229Z,101387.00
2023-02-16T18:56:19.017Z,101391.44
2023-02-16T18:58:48.484Z,101393.03
2023-02-16T19:01:24.666Z,101394.72
2023-02-16T19:03:52.489Z,101393.88
2023-02-16T19:06:20.506Z,101391.13
2023-02-16T19:08:48.510Z,101394.72
2023-02-16T19:11:16.176Z,101396.41
2023-02-16T19:13:43.886Z,101389.22
2023-02-16T19:16:13.087Z,101387.53
2023-02-16T19:18:41.176Z,101382.47
2023-02-16T19:21:11.470Z,101389.44
2023-02-16T19:23:39.361Z,101391.22
2023-02-16T19:26:08.002Z,101364.88
2023-02-16T19:28:46.264Z,101384.16
2023-02-16T19:31:20.829Z,101386.91
2023-02-16T19:33:51.730Z,101369.81
2023-02-16T19:36:26.929Z,101396.63
2023-02-16T19:38:55.359Z,101395.88
2023-02-16T19:41:26.565Z,101395.56
2023-02-16T19:43:55.015Z,101390.28
2023-02-16T19:46:24.797Z,101391.44
2023-02-16T19:48:52.756Z,101405.94
2023-02-16T19:51:20.468Z,101385.44
2023-02-16T19:53:48.917Z,101386.94
2023-02-16T19:56:19.189Z,101380.38
2023-02-16T19:58:47.505Z,101383.38
2023-02-16T20:01:18.026Z,101383.38
2023-02-16T20:03:47.515Z,101386.31
2023-02-16T20:06:17.908Z,101390.75
2023-02-16T20:08:47.561Z,101382.09
2023-02-16T20:11:16.459Z,101388.84
2023-02-16T20:13:47.683Z,101277.09
2023-02-16T20:16:16.968Z,101385.56
2023-02-16T20:18:45.488Z,101384.81
2023-02-16T20:21:16.192Z,101371.75
2023-02-16T20:23:44.276Z,101369.53
2023-02-16T20:26:14.941Z,101361.72
2023-02-16T20:28:43.062Z,101366.06
2023-02-16T20:31:13.461Z,101355.72
2023-02-16T20:33:42.182Z,101354.03
2023-02-16T20:36:10.682Z,101362.56
2023-02-16T20:38:40.267Z,101360.56
2023-02-16T20:41:08.098Z,101354.47
2023-02-16T20:43:36.116Z,101352.75
2023-02-16T20:46:05.216Z,101352.75
2023-02-16T20:48:33.276Z,101349.38
2023-02-16T20:51:03.406Z,101353.81
2023-02-16T20:53:32.516Z,101344.13
2023-02-16T20:56:07.628Z,101341.38
2023-02-16T20:58:35.981Z,101338.00
2023-02-16T21:01:04.099Z,101335.56
2023-02-16T21:03:31.782Z,101343.06
2023-02-16T21:05:59.616Z,101325.97
2023-02-16T21:08:29.617Z,101345.81
2023-02-16T21:10:57.680Z,101346.53
2023-02-16T21:13:33.294Z,101351.91
2023-02-16T21:16:04.150Z,101306.38
2023-02-16T21:18:32.366Z,101339.69
2023-02-16T21:21:01.292Z,101330.81
2023-02-16T21:23:42.261Z,101333.75
2023-02-16T21:26:10.118Z,101324.91
2023-02-16T21:28:41.081Z,101321.53
2023-02-16T21:31:12.523Z,101332.31
2023-02-16T21:33:45.500Z,101306.25
2023-02-16T21:36:15.377Z,101295.38
2023-02-16T21:38:44.085Z,101332.31
2023-02-16T21:41:28.646Z,101335.16
2023-02-16T21:44:01.397Z,101321.44
2023-02-16T21:46:33.227Z,101333.00
2023-02-16T21:49:00.551Z,101331.22
2023-02-16T21:51:36.507Z,101246.03
2023-02-16T21:54:07.042Z,101330.16
2023-02-16T21:56:36.880Z,101296.44
2023-02-16T21:59:08.132Z,101322.34
2023-02-16T22:01:38.711Z,101277.47
2023-02-16T22:04:07.375Z,101318.88
2023-02-16T22:06:39.422Z,101302.66
2023-02-16T22:09:11.741Z,101300.31
2023-02-16T22:11:43.070Z,101317.91
2023-02-16T22:14:12.571Z,101295.78
2023-02-16T22:16:40.520Z,101313.59
2023-02-16T22:19:10.296Z,101305.28
2023-02-16T22:21:41.405Z,101296.63
2023-02-16T22:24:12.358Z,101300.66
2023-02-16T22:26:40.495Z,101296.31
2023-02-16T22:29:09.716Z,101305.91
2023-02-16T22:31:39.542Z,101317.53
2023-02-16T22:34:12.211Z,101318.59
2023-02-16T22:36:40.375Z,101310.78
2023-02-16T22:39:08.566Z,101300.03
2023-02-16T22:41:36.722Z,101309.19
2023-02-16T22:44:04.603Z,101317.31
2023-02-16T22:46:33.042Z,101315.63
2023-02-16T22:49:02.198Z,101315.00
2023-02-16T22:51:32.615Z,101297.28
2023-02-16T22:54:02.408Z,101309.84
2023-02-16T22:56:33.264Z,101305.63
2023-02-16T22:59:03.825Z,101301.28
2023-02-16T23:01:32.225Z,101298.56
2023-02-16T23:04:02.439Z,101303.81
2023-02-16T23:06:32.004Z,101302.78
2023-02-16T23:09:01.376Z,101304.47
2023-02-16T23:11:29.615Z,101291.78
2023-02-16T23:13:57.681Z,101298.09
2023-02-16T23:16:33.176Z,101292.31
2023-02-16T23:19:07.732Z,101246.44
2023-02-16T23:21:36.152Z,101306.00
2023-02-16T23:24:04.493Z,101297.63
2023-02-16T23:26:33.242Z,101284.38
2023-02-16T23:29:02.770Z,101309.22
2023-02-16T23:31:33.553Z,101300.53
2023-02-16T23:34:02.651Z,101290.81
2023-02-16T23:37:04.571Z,101272.78
2023-02-16T23:39:47.521Z,101281.75
2023-02-16T23:42:21.506Z,101318.06
2023-02-16T23:44:49.929Z,101318.59
2023-02-16T23:47:17.794Z,101314.03
2023-02-16T23:49:45.636Z,101292.88
2023-02-16T23:52:18.559Z,101303.59
2023-02-16T23:54:50.877Z,101303.38
2023-02-16T23:57:18.900Z,101308.44
2023-02-16T23:59:46.746Z,101306.97
